createdAt,value
2023-05-24T00:01:11.048Z,1.80
2023-05-24T00:03:40.235Z,2.20
2023-05-24T00:06:09.144Z,1.98
2023-05-24T00:08:36.385Z,2.20
2023-05-24T00:11:03.645Z,2.30
2023-05-24T00:13:30.875Z,2.22
2023-05-24T00:15:58.152Z,1.80
2023-05-24T00:18:26.179Z,2.50
2023-05-24T00:20:57.045Z,2.10
2023-05-24T00:23:25.639Z,1.90
2023-05-24T00:25:52.976Z,2.40
2023-05-24T00:28:21.095Z,2.28
2023-05-24T00:30:48.317Z,2.00
2023-05-24T00:33:15.658Z,2.10
2023-05-24T00:35:42.903Z,1.88
2023-05-24T00:38:10.190Z,2.20
2023-05-24T00:40:38.786Z,2.00
2023-05-24T00:43:06.038Z,2.15
2023-05-24T00:45:33.842Z,2.03
2023-05-24T00:48:01.302Z,1.88
2023-05-24T00:50:28.636Z,1.98
2023-05-24T00:52:55.932Z,1.88
2023-05-24T00:55:23.178Z,2.40
2023-05-24T00:57:52.295Z,1.70
2023-05-24T01:00:19.798Z,2.25
2023-05-24T01:02:48.275Z,2.00
2023-05-24T01:05:17.302Z,2.08
2023-05-24T01:07:47.033Z,1.80
2023-05-24T01:10:15.602Z,2.42
2023-05-24T01:12:47.115Z,2.15
2023-05-24T01:15:18.271Z,1.67
2023-05-24T01:17:48.365Z,2.28
2023-05-24T01:23:01.743Z,1.75
2023-05-24T01:25:33.414Z,2.22
2023-05-24T01:28:04.082Z,2.30
2023-05-24T01:30:31.339Z,1.75
2023-05-24T01:32:58.589Z,1.88
2023-05-24T01:35:25.827Z,2.20
2023-05-24T01:37:53.062Z,2.22
2023-05-24T01:40:20.353Z,1.95
2023-05-24T01:42:49.073Z,2.50
2023-05-24T01:45:19.313Z,2.17
2023-05-24T01:47:48.426Z,2.20
2023-05-24T01:50:17.289Z,2.17
2023-05-24T01:52:44.937Z,2.33
2023-05-24T01:55:12.368Z,2.40
2023-05-24T01:57:41.243Z,2.58
2023-05-24T02:00:09.705Z,2.38
2023-05-24T02:02:38.305Z,2.00
2023-05-24T02:05:05.963Z,2.28
2023-05-24T02:07:33.219Z,2.53
2023-05-24T02:10:00.487Z,1.85
2023-05-24T02:12:27.719Z,2.17
2023-05-24T02:14:54.980Z,2.38
2023-05-24T02:17:22.496Z,2.65
2023-05-24T02:19:51.127Z,2.20
2023-05-24T02:22:18.446Z,2.22
2023-05-24T02:24:45.813Z,2.00
2023-05-24T02:27:13.148Z,2.00
2023-05-24T02:29:41.815Z,2.20
2023-05-24T02:32:09.111Z,2.13
2023-05-24T02:34:36.345Z,2.30
2023-05-24T02:37:06.020Z,2.22
2023-05-24T02:39:33.355Z,2.08
2023-05-24T02:42:00.634Z,2.20
2023-05-24T02:44:27.946Z,1.85
2023-05-24T02:46:55.227Z,2.00
2023-05-24T02:49:22.512Z,1.83
2023-05-24T02:51:49.802Z,2.17
2023-05-24T02:54:18.726Z,1.80
2023-05-24T02:56:45.974Z,2.10
2023-05-24T02:59:13.235Z,2.00
2023-05-24T03:01:40.557Z,2.13
2023-05-24T03:04:07.936Z,2.22
2023-05-24T03:06:36.042Z,1.85
2023-05-24T03:09:03.493Z,1.75
2023-05-24T03:11:32.049Z,2.40
2023-05-24T03:13:59.317Z,2.08
2023-05-24T03:16:26.569Z,2.45
2023-05-24T03:18:55.334Z,2.17
2023-05-24T03:21:23.448Z,1.95
2023-05-24T03:23:50.857Z,2.08
2023-05-24T03:26:18.649Z,2.30
2023-05-24T03:28:47.525Z,2.50
2023-05-24T03:31:14.911Z,1.73
2023-05-24T03:33:42.194Z,2.15
2023-05-24T03:36:09.559Z,1.90
2023-05-24T03:38:36.810Z,1.85
2023-05-24T03:41:04.110Z,2.30
2023-05-24T03:43:31.341Z,1.92
2023-05-24T03:45:59.986Z,2.00
2023-05-24T03:48:27.252Z,2.00
2023-05-24T03:50:54.526Z,2.03
2023-05-24T03:53:23.151Z,1.90
2023-05-24T03:55:50.937Z,2.20
2023-05-24T03:58:18.195Z,2.20
2023-05-24T04:00:45.439Z,2.50
2023-05-24T04:03:14.695Z,2.10
2023-05-24T04:05:42.080Z,2.20
2023-05-24T04:08:09.318Z,2.17
2023-05-24T04:10:36.561Z,2.42
2023-05-24T04:13:03.911Z,2.40
2023-05-24T04:15:31.701Z,2.70
2023-05-24T04:18:00.495Z,2.28
2023-05-24T04:20:29.294Z,2.30
2023-05-24T04:22:56.972Z,2.30
2023-05-24T04:25:24.541Z,2.33
2023-05-24T04:27:51.817Z,1.90
2023-05-24T04:30:19.448Z,1.85
2023-05-24T04:32:47.326Z,2.33
2023-05-24T04:35:15.530Z,2.80
2023-05-24T04:37:44.516Z,2.22
2023-05-24T04:40:12.465Z,2.42
2023-05-24T04:42:39.706Z,2.60
2023-05-24T04:45:07.572Z,2.50
2023-05-24T04:47:34.856Z,2.20
2023-05-24T04:50:02.351Z,2.33
2023-05-24T04:52:30.462Z,2.00
2023-05-24T04:54:59.095Z,2.47
2023-05-24T04:57:26.371Z,2.50
2023-05-24T04:59:53.662Z,2.33
2023-05-24T05:02:22.251Z,2.30
2023-05-24T05:04:49.573Z,2.80
2023-05-24T05:07:17.019Z,2.75
2023-05-24T05:09:44.287Z,2.38
2023-05-24T05:12:14.153Z,2.58
2023-05-24T05:14:41.958Z,2.33
2023-05-24T05:17:09.172Z,2.30
2023-05-24T05:19:36.519Z,3.10
2023-05-24T05:22:03.765Z,2.63
2023-05-24T05:24:31.656Z,2.35
2023-05-24T05:26:58.961Z,2.70
2023-05-24T05:29:27.501Z,2.80
2023-05-24T05:31:55.730Z,2.55
2023-05-24T05:34:22.977Z,4.68
2023-05-24T05:36:50.217Z,4.32
2023-05-24T05:39:17.752Z,3.42
2023-05-24T05:41:46.274Z,3.83
2023-05-24T05:44:13.905Z,4.40
2023-05-24T05:46:45.940Z,3.95
2023-05-24T05:49:13.708Z,3.90
2023-05-24T05:51:40.980Z,3.58
2023-05-24T05:54:14.146Z,3.10
2023-05-24T05:56:45.428Z,3.75
2023-05-24T05:59:12.711Z,4.43
2023-05-24T06:01:40.058Z,3.92
2023-05-24T06:04:08.730Z,3.97
2023-05-24T06:06:36.121Z,3.65
2023-05-24T06:09:03.447Z,3.90
2023-05-24T06:11:30.746Z,3.95
2023-05-24T06:13:57.996Z,3.70
2023-05-24T06:16:25.373Z,3.50
2023-05-24T06:19:04.507Z,3.22
2023-05-24T06:21:36.529Z,3.97
2023-05-24T06:24:04.086Z,3.70
2023-05-24T06:26:31.462Z,3.67
2023-05-24T06:28:58.704Z,3.00
2023-05-24T06:31:26.010Z,3.38
2023-05-24T06:34:03.804Z,3.85
2023-05-24T06:36:33.925Z,3.58
2023-05-24T06:39:02.465Z,3.97
2023-05-24T06:41:29.821Z,3.47
2023-05-24T06:43:57.095Z,3.63
2023-05-24T06:46:24.355Z,3.40
2023-05-24T06:48:51.690Z,3.47
2023-05-24T06:51:19.037Z,3.92
2023-05-24T06:53:46.289Z,4.13
2023-05-24T06:56:15.074Z,3.50
2023-05-24T06:58:42.850Z,4.50
2023-05-24T07:01:10.226Z,3.60
2023-05-24T07:03:38.125Z,3.00
2023-05-24T07:06:05.414Z,3.42
2023-05-24T07:08:32.740Z,3.25
2023-05-24T07:11:00.236Z,4.18
2023-05-24T07:13:28.845Z,3.20
2023-05-24T07:15:56.188Z,3.45
2023-05-24T07:18:23.500Z,3.38
2023-05-24T07:20:50.877Z,3.90
2023-05-24T07:23:18.216Z,4.65
2023-05-24T07:25:45.468Z,5.20
2023-05-24T07:28:14.156Z,4.18
2023-05-24T07:30:42.755Z,5.50
2023-05-24T07:33:10.036Z,5.50
2023-05-24T07:35:38.493Z,4.90
2023-05-24T07:38:05.782Z,4.53
2023-05-24T07:40:33.041Z,4.55
2023-05-24T07:43:00.347Z,4.80
2023-05-24T07:45:27.651Z,4.65
2023-05-24T07:47:57.060Z,4.53
2023-05-24T07:50:24.629Z,4.82
2023-05-24T07:52:52.168Z,4.43
2023-05-24T07:55:19.426Z,4.50
2023-05-24T07:57:46.689Z,4.25
2023-05-24T08:00:15.259Z,4.38
2023-05-24T08:02:43.147Z,4.40
2023-05-24T08:05:11.920Z,4.47
2023-05-24T08:07:40.189Z,5.00
2023-05-24T08:10:08.198Z,3.97
2023-05-24T08:12:35.465Z,4.55
2023-05-24T08:15:02.711Z,4.38
2023-05-24T08:17:31.560Z,5.05
2023-05-24T08:19:58.961Z,6.80
2023-05-24T08:22:28.174Z,6.80
2023-05-24T08:24:55.396Z,5.70
2023-05-24T08:27:22.622Z,6.13
2023-05-24T08:29:49.847Z,6.53
2023-05-24T08:32:17.092Z,5.15
2023-05-24T08:34:45.137Z,6.32
2023-05-24T08:37:16.253Z,6.60
2023-05-24T08:39:45.061Z,8.80
2023-05-24T08:42:12.321Z,9.15
2023-05-24T08:44:40.501Z,11.38
2023-05-24T08:47:08.147Z,12.15
2023-05-24T08:49:37.110Z,11.77
2023-05-24T08:52:04.715Z,13.35
2023-05-24T08:54:32.156Z,16.05
2023-05-24T08:57:00.979Z,11.43
2023-05-24T08:59:28.281Z,11.43
2023-05-24T09:01:55.663Z,14.00
2023-05-24T09:04:23.137Z,14.13
2023-05-24T09:06:50.429Z,13.98
2023-05-24T09:09:17.886Z,14.52
2023-05-24T09:11:45.122Z,11.30
2023-05-24T09:14:13.731Z,12.77
2023-05-24T09:16:41.601Z,12.27
2023-05-24T09:19:09.056Z,12.27
2023-05-24T09:21:36.721Z,12.68
2023-05-24T09:24:04.041Z,13.45
2023-05-24T09:26:31.776Z,13.27
2023-05-24T09:28:59.190Z,12.60
2023-05-24T09:31:34.578Z,12.60
2023-05-24T09:34:01.887Z,13.30
2023-05-24T09:36:30.186Z,12.75
2023-05-24T09:39:08.477Z,14.52
2023-05-24T09:41:35.750Z,12.55
2023-05-24T09:44:03.244Z,14.48
2023-05-24T09:46:31.067Z,12.63
2023-05-24T09:48:59.843Z,13.05
2023-05-24T09:51:27.322Z,18.65
2023-05-24T09:53:57.565Z,9.70
2023-05-24T09:56:25.195Z,13.50
2023-05-24T09:58:52.522Z,9.38
2023-05-24T10:01:20.798Z,8.20
2023-05-24T10:03:54.034Z,8.75
2023-05-24T10:06:23.880Z,7.05
2023-05-24T10:08:51.725Z,7.22
2023-05-24T10:11:19.305Z,9.07
2023-05-24T10:13:46.558Z,8.65
2023-05-24T10:16:13.859Z,9.10
2023-05-24T10:18:41.118Z,9.43
2023-05-24T10:21:09.533Z,7.93
2023-05-24T10:23:38.799Z,8.45
2023-05-24T10:26:07.354Z,8.13
2023-05-24T10:28:35.276Z,8.60
2023-05-24T10:31:03.379Z,8.50
2023-05-24T10:33:30.762Z,8.38
2023-05-24T10:35:58.138Z,8.07
2023-05-24T10:38:25.680Z,7.78
2023-05-24T10:40:54.334Z,8.07
2023-05-24T10:43:22.116Z,7.60
2023-05-24T10:45:49.628Z,8.00
2023-05-24T10:48:32.582Z,7.20
2023-05-24T10:51:01.710Z,7.35
2023-05-24T10:55:56.356Z,6.90
2023-05-24T10:58:24.340Z,7.22
2023-05-24T11:00:53.330Z,6.47
2023-05-24T11:03:24.518Z,6.28
2023-05-24T11:05:53.203Z,6.93
2023-05-24T11:08:24.380Z,5.88
2023-05-24T11:10:52.313Z,6.57
2023-05-24T11:13:21.729Z,7.00
2023-05-24T11:15:52.298Z,5.97
2023-05-24T11:18:22.781Z,6.18
2023-05-24T11:20:50.194Z,6.30
2023-05-24T11:23:17.814Z,6.32
2023-05-24T11:25:45.299Z,6.07
2023-05-24T11:28:12.998Z,6.22
2023-05-24T11:30:42.063Z,6.20
2023-05-24T11:33:16.231Z,5.43
2023-05-24T11:35:43.538Z,6.05
2023-05-24T11:38:12.888Z,6.13
2023-05-24T11:40:44.485Z,5.85
2023-05-24T11:43:16.753Z,5.10
2023-05-24T11:45:46.119Z,5.43
2023-05-24T11:48:13.511Z,6.57
2023-05-24T11:50:49.403Z,4.95
2023-05-24T11:53:20.752Z,5.22
2023-05-24T11:55:48.665Z,4.88
2023-05-24T11:58:19.315Z,6.00
2023-05-24T12:00:48.126Z,5.28
2023-05-24T12:03:15.521Z,4.80
2023-05-24T12:05:42.984Z,4.82
2023-05-24T12:08:12.711Z,5.43
2023-05-24T12:10:41.189Z,4.55
2023-05-24T12:13:20.009Z,4.65
2023-05-24T12:15:51.405Z,4.80
2023-05-24T12:18:20.119Z,4.93
2023-05-24T12:20:47.553Z,4.55
2023-05-24T12:23:15.076Z,4.65
2023-05-24T12:25:42.354Z,4.35
2023-05-24T12:28:09.622Z,4.22
2023-05-24T12:30:37.857Z,4.47
2023-05-24T12:33:06.902Z,4.65
2023-05-24T12:35:34.202Z,3.75
2023-05-24T12:38:01.785Z,4.30
2023-05-24T12:40:29.027Z,4.20
2023-05-24T12:42:57.257Z,4.05
2023-05-24T12:45:25.814Z,4.60
2023-05-24T12:47:53.247Z,3.92
2023-05-24T12:50:22.113Z,4.35
2023-05-24T12:52:52.788Z,4.05
2023-05-24T12:55:20.129Z,4.13
2023-05-24T12:57:52.985Z,3.97
2023-05-24T13:00:21.005Z,3.97
2023-05-24T13:02:48.292Z,3.88
2023-05-24T13:05:16.043Z,3.80
2023-05-24T13:07:44.707Z,4.20
2023-05-24T13:10:12.356Z,3.78
2023-05-24T13:12:41.602Z,3.63
2023-05-24T13:15:09.307Z,3.80
2023-05-24T13:17:36.650Z,3.50
2023-05-24T13:20:06.721Z,3.60
2023-05-24T13:25:03.198Z,3.35
2023-05-24T13:27:30.483Z,3.60
2023-05-24T13:30:01.261Z,3.90
2023-05-24T13:32:29.076Z,3.30
2023-05-24T13:34:56.353Z,3.33
2023-05-24T13:37:24.582Z,3.45
2023-05-24T13:39:52.047Z,3.78
2023-05-24T13:42:20.837Z,3.55
2023-05-24T13:44:48.141Z,3.97
2023-05-24T13:47:31.071Z,3.40
2023-05-24T13:50:06.850Z,3.17
2023-05-24T13:52:34.122Z,3.15
2023-05-24T13:55:04.140Z,3.15
2023-05-24T13:57:49.791Z,3.30
2023-05-24T14:00:19.248Z,3.38
2023-05-24T14:02:46.766Z,3.20
2023-05-24T14:05:26.874Z,3.65
2023-05-24T14:07:55.626Z,3.55
2023-05-24T14:10:23.484Z,3.72
2023-05-24T14:13:07.896Z,3.45
2023-05-24T14:15:39.927Z,3.28
2023-05-24T14:18:08.452Z,3.35
2023-05-24T14:20:37.744Z,3.00
2023-05-24T14:23:05.923Z,3.15
2023-05-24T14:25:34.052Z,3.60
2023-05-24T14:28:03.547Z,3.25
2023-05-24T14:30:31.779Z,3.40
2023-05-24T14:33:00.588Z,3.55
2023-05-24T14:35:27.934Z,3.20
2023-05-24T14:37:55.222Z,3.65
2023-05-24T14:40:22.508Z,3.67
2023-05-24T14:42:49.956Z,3.45
2023-05-24T14:45:18.562Z,3.30
2023-05-24T14:47:45.821Z,3.42
2023-05-24T14:50:13.164Z,3.22
2023-05-24T14:52:40.454Z,3.50
2023-05-24T14:55:08.185Z,3.20
2023-05-24T14:57:35.911Z,3.25
2023-05-24T15:00:03.847Z,3.38
2023-05-24T15:02:34.178Z,3.40
2023-05-24T15:05:01.643Z,3.30
2023-05-24T15:07:28.889Z,3.30
2023-05-24T15:09:56.191Z,2.83
2023-05-24T15:12:23.506Z,3.08
2023-05-24T15:14:50.830Z,3.20
2023-05-24T15:17:20.945Z,3.13
2023-05-24T15:19:50.337Z,3.00
2023-05-24T15:22:17.753Z,3.53
2023-05-24T15:24:45.024Z,3.35
2023-05-24T15:27:12.278Z,3.65
2023-05-24T15:29:39.550Z,3.55
2023-05-24T15:32:07.240Z,3.45
2023-05-24T15:34:34.496Z,3.38
2023-05-24T15:37:03.049Z,3.13
2023-05-24T15:39:30.336Z,3.20
2023-05-24T15:41:57.854Z,3.10
2023-05-24T15:44:25.113Z,3.83
2023-05-24T15:46:52.380Z,3.58
2023-05-24T15:49:19.677Z,3.25
2023-05-24T15:52:02.735Z,3.00
2023-05-24T15:54:33.744Z,3.25
2023-05-24T15:57:01.715Z,3.10
2023-05-24T15:59:28.989Z,2.72
2023-05-24T16:01:56.457Z,3.13
2023-05-24T16:04:23.816Z,2.83
2023-05-24T16:06:51.092Z,3.13
2023-05-24T16:09:18.383Z,3.13
2023-05-24T16:11:47.709Z,3.10
2023-05-24T16:14:14.959Z,3.55
2023-05-24T16:16:42.820Z,3.13
2023-05-24T16:19:10.486Z,3.08
2023-05-24T16:21:38.080Z,3.28
2023-05-24T16:24:05.792Z,3.22
2023-05-24T16:26:33.319Z,2.97
2023-05-24T16:29:02.590Z,3.05
2023-05-24T16:31:30.733Z,3.13
2023-05-24T16:33:58.735Z,3.28
2023-05-24T16:36:26.753Z,3.42
2023-05-24T16:38:54.109Z,3.33
2023-05-24T16:41:21.386Z,3.60
2023-05-24T16:43:48.650Z,3.20
2023-05-24T16:46:17.244Z,3.40
2023-05-24T16:48:44.567Z,3.20
2023-05-24T16:51:11.860Z,3.30
2023-05-24T16:53:39.098Z,3.22
2023-05-24T16:56:06.613Z,3.03
2023-05-24T16:58:33.864Z,3.28
2023-05-24T17:01:01.292Z,3.03
2023-05-24T17:03:30.053Z,3.08
2023-05-24T17:06:01.112Z,3.22
2023-05-24T17:08:30.449Z,3.17
2023-05-24T17:10:58.865Z,3.35
2023-05-24T17:13:27.274Z,2.90
2023-05-24T17:15:55.208Z,3.10
2023-05-24T17:18:27.982Z,3.17
2023-05-24T17:20:57.082Z,3.08
2023-05-24T17:23:25.205Z,3.03
2023-05-24T17:25:52.817Z,3.15
2023-05-24T17:28:20.167Z,3.22
2023-05-24T17:30:48.435Z,3.45
2023-05-24T17:33:15.954Z,2.85
2023-05-24T17:35:43.370Z,3.13
2023-05-24T17:38:11.960Z,2.95
2023-05-24T17:40:39.323Z,3.17
2023-05-24T17:43:07.500Z,2.83
2023-05-24T17:45:34.793Z,3.67
2023-05-24T17:48:02.042Z,3.10
2023-05-24T17:50:29.324Z,4.05
2023-05-24T17:52:58.037Z,3.17
2023-05-24T17:55:27.366Z,2.97
2023-05-24T17:57:54.811Z,3.47
2023-05-24T18:00:22.049Z,3.38
2023-05-24T18:02:49.431Z,3.40
2023-05-24T18:05:16.950Z,3.17
2023-05-24T18:07:44.366Z,3.05
2023-05-24T18:10:12.195Z,3.15
2023-05-24T18:12:41.182Z,3.00
2023-05-24T18:15:08.797Z,3.30
2023-05-24T18:17:36.384Z,3.08
2023-05-24T18:20:04.017Z,3.13
2023-05-24T18:22:31.636Z,3.53
2023-05-24T18:24:59.417Z,3.80
2023-05-24T18:27:26.981Z,3.47
2023-05-24T18:29:55.574Z,3.50
2023-05-24T18:32:22.958Z,3.72
2023-05-24T18:34:50.257Z,3.00
2023-05-24T18:37:17.533Z,3.55
2023-05-24T18:39:44.763Z,3.33
2023-05-24T18:42:12.553Z,3.80
2023-05-24T18:44:39.932Z,3.70
2023-05-24T18:47:10.432Z,3.80
2023-05-24T18:49:37.698Z,3.40
2023-05-24T18:52:05.080Z,3.40
2023-05-24T18:54:32.313Z,3.38
2023-05-24T18:57:02.216Z,3.70
2023-05-24T18:59:31.507Z,3.50
2023-05-24T19:02:00.781Z,3.53
2023-05-24T19:04:29.615Z,3.70
2023-05-24T19:06:56.891Z,3.60
2023-05-24T19:09:24.792Z,3.40
2023-05-24T19:11:52.156Z,3.72
2023-05-24T19:14:21.885Z,3.72
2023-05-24T19:16:49.205Z,3.67
2023-05-24T19:19:16.682Z,3.78
2023-05-24T19:21:45.278Z,3.60
2023-05-24T19:24:12.562Z,3.80
2023-05-24T19:26:40.187Z,3.55
2023-05-24T19:29:07.494Z,3.97
2023-05-24T19:31:36.042Z,3.75
2023-05-24T19:34:03.381Z,4.10
2023-05-24T19:36:32.660Z,4.18
2023-05-24T19:39:01.262Z,3.67
2023-05-24T19:41:28.634Z,4.13
2023-05-24T19:43:56.424Z,3.38
2023-05-24T19:46:23.864Z,3.80
2023-05-24T19:48:51.348Z,3.60
2023-05-24T19:51:18.601Z,3.78
2023-05-24T19:53:45.893Z,3.65
2023-05-24T19:56:14.482Z,4.00
2023-05-24T19:58:41.761Z,3.42
2023-05-24T20:01:09.070Z,4.07
2023-05-24T20:03:36.436Z,3.70
2023-05-24T20:06:03.791Z,3.60
2023-05-24T20:08:31.073Z,3.67
2023-05-24T20:10:58.305Z,3.88
2023-05-24T20:13:26.916Z,3.70
2023-05-24T20:15:56.037Z,3.63
2023-05-24T20:18:23.716Z,3.42
2023-05-24T20:20:50.959Z,3.45
2023-05-24T20:23:18.218Z,3.75
2023-05-24T20:25:45.959Z,3.58
2023-05-24T20:28:28.909Z,3.50
2023-05-24T20:30:59.085Z,3.50
2023-05-24T20:33:26.396Z,3.92
2023-05-24T20:35:54.269Z,3.60
2023-05-24T20:38:21.942Z,3.92
2023-05-24T20:40:49.169Z,3.65
2023-05-24T20:43:16.416Z,4.10
2023-05-24T20:45:43.928Z,3.92
2023-05-24T20:48:12.914Z,3.30
2023-05-24T20:50:40.170Z,3.58
2023-05-24T20:53:07.420Z,3.60
2023-05-24T20:55:34.660Z,4.07
2023-05-24T20:58:01.906Z,3.55
2023-05-24T21:00:29.147Z,3.65
2023-05-24T21:02:56.590Z,3.42
2023-05-24T21:05:25.299Z,3.35
2023-05-24T21:07:52.557Z,3.30
2023-05-24T21:10:20.969Z,3.95
2023-05-24T21:12:48.929Z,3.50
2023-05-24T21:15:16.213Z,3.75
2023-05-24T21:17:43.480Z,3.45
2023-05-24T21:20:11.197Z,3.30
2023-05-24T21:22:39.857Z,3.78
2023-05-24T21:25:07.715Z,3.72
2023-05-24T21:27:34.968Z,3.55
2023-05-24T21:30:03.288Z,3.67
2023-05-24T21:32:30.547Z,4.35
2023-05-24T21:34:57.806Z,3.58
2023-05-24T21:37:25.759Z,3.80
2023-05-24T21:39:54.290Z,3.72
2023-05-24T21:42:21.506Z,3.78
2023-05-24T21:44:48.738Z,3.60
2023-05-24T21:47:15.967Z,3.55
2023-05-24T21:49:43.222Z,3.50
2023-05-24T21:52:10.505Z,3.78
2023-05-24T21:54:37.735Z,3.20
2023-05-24T21:57:07.024Z,3.33
2023-05-24T21:59:34.298Z,3.70
2023-05-24T22:02:01.646Z,3.67
2023-05-24T22:04:28.915Z,3.30
2023-05-24T22:06:56.184Z,3.15
2023-05-24T22:09:23.410Z,3.70
2023-05-24T22:11:50.680Z,3.55
2023-05-24T22:14:19.235Z,3.70
2023-05-24T22:16:46.781Z,3.13
2023-05-24T22:19:16.585Z,3.33
2023-05-24T22:21:45.956Z,3.80
2023-05-24T22:24:13.585Z,3.75
2023-05-24T22:26:41.518Z,3.47
2023-05-24T22:29:08.823Z,3.60
2023-05-24T22:31:37.383Z,3.85
2023-05-24T22:34:04.654Z,3.50
2023-05-24T22:36:33.144Z,3.35
2023-05-24T22:39:00.544Z,3.50
2023-05-24T22:41:27.849Z,3.72
2023-05-24T22:43:55.082Z,3.42
2023-05-24T22:46:22.914Z,3.20
2023-05-24T22:48:52.155Z,3.05
2023-05-24T22:51:19.423Z,3.10
2023-05-24T22:53:46.760Z,3.50
2023-05-24T22:56:14.075Z,2.97
2023-05-24T22:58:41.320Z,3.00
2023-05-24T23:01:08.598Z,3.40
2023-05-24T23:03:36.075Z,3.42
2023-05-24T23:06:05.453Z,3.30
2023-05-24T23:08:32.884Z,3.30
2023-05-24T23:11:00.203Z,3.70
2023-05-24T23:13:33.639Z,3.25
2023-05-24T23:16:00.894Z,3.38
2023-05-24T23:18:28.325Z,3.40
2023-05-24T23:20:55.890Z,3.10
2023-05-24T23:23:24.600Z,3.42
2023-05-24T23:25:52.031Z,3.17
2023-05-24T23:28:19.312Z,3.40
2023-05-24T23:30:46.645Z,3.25
2023-05-24T23:33:13.926Z,3.20
2023-05-24T23:35:41.245Z,3.03
2023-05-24T23:38:08.716Z,3.50
2023-05-24T23:40:37.284Z,3.10
2023-05-24T23:43:04.554Z,3.25
2023-05-24T23:45:31.797Z,3.25
2023-05-24T23:47:59.148Z,2.92
2023-05-24T23:50:27.401Z,3.20
2023-05-24T23:52:54.698Z,3.20
2023-05-24T23:55:22.449Z,3.47
2023-05-24T23:57:52.039Z,3.30
